createdAt,value
2022-12-25T00:02:00.743Z,1.73
2022-12-25T00:05:03.560Z,1.46
2022-12-25T00:08:06.994Z,1.65
2022-12-25T00:11:13.250Z,1.52
2022-12-25T00:14:15.903Z,1.49
2022-12-25T00:17:18.362Z,1.59
2022-12-25T00:20:20.880Z,1.59
2022-12-25T00:23:23.321Z,1.48
2022-12-25T00:26:26.970Z,1.29
2022-12-25T00:29:29.517Z,1.17
2022-12-25T00:32:32.040Z,1.24
2022-12-25T00:35:34.468Z,1.31
2022-12-25T00:38:38.767Z,1.34
2022-12-25T00:42:00.074Z,1.74
2022-12-25T00:45:02.543Z,1.57
2022-12-25T00:48:05.605Z,1.51
2022-12-25T00:51:11.265Z,1.27
2022-12-25T00:54:13.746Z,1.15
2022-12-25T00:57:16.200Z,1.00
2022-12-25T01:00:19.036Z,0.79
2022-12-25T01:03:22.018Z,0.75
2022-12-25T01:06:25.457Z,0.76
2022-12-25T01:09:59.927Z,0.75
2022-12-25T01:13:02.367Z,0.80
2022-12-25T01:16:11.676Z,0.80
2022-12-25T01:19:14.347Z,0.62
2022-12-25T01:22:16.893Z,0.87
2022-12-25T01:25:19.627Z,0.89
2022-12-25T01:28:22.183Z,0.64
2022-12-25T01:31:25.174Z,0.57
2022-12-25T01:34:27.742Z,0.51
2022-12-25T01:37:30.246Z,0.41
2022-12-25T01:40:34.402Z,0.69
2022-12-25T01:44:06.801Z,0.64
2022-12-25T01:47:09.261Z,0.51
2022-12-25T01:50:11.943Z,0.38
2022-12-25T01:53:14.579Z,0.39
2022-12-25T01:56:17.117Z,0.15
2022-12-25T01:59:22.345Z,0.09
2022-12-25T02:02:25.077Z,0.11
2022-12-25T02:05:32.596Z,-0.01
2022-12-25T02:08:35.038Z,0.16
2022-12-25T02:11:56.019Z,0.17
2022-12-25T02:15:06.085Z,0.24
2022-12-25T02:18:18.487Z,0.21
2022-12-25T02:21:53.008Z,0.25
2022-12-25T02:25:22.949Z,0.20
2022-12-25T02:28:34.602Z,0.24
2022-12-25T02:31:49.193Z,0.22
2022-12-25T02:34:59.604Z,0.11
2022-12-25T02:38:11.080Z,0.31
2022-12-25T02:41:16.148Z,0.24
2022-12-25T02:44:41.541Z,0.32
2022-12-25T02:48:03.030Z,0.30
2022-12-25T02:51:27.124Z,0.03
2022-12-25T02:54:54.817Z,-0.12
2022-12-25T02:58:19.026Z,-0.22
2022-12-25T03:01:42.183Z,0.02
2022-12-25T03:05:03.149Z,0.39
2022-12-25T03:08:11.273Z,0.26
2022-12-25T03:11:31.813Z,0.11
2022-12-25T03:14:53.108Z,0.20
2022-12-25T03:17:57.841Z,-0.01
2022-12-25T03:21:18.835Z,-0.15
2022-12-25T03:24:40.457Z,-0.14
2022-12-25T03:27:44.577Z,-0.34
2022-12-25T03:31:25.604Z,-0.26
2022-12-25T03:35:08.577Z,0.03
2022-12-25T03:38:41.778Z,-0.04
2022-12-25T03:42:06.491Z,-0.17
2022-12-25T03:45:31.535Z,-0.27
2022-12-25T03:48:55.171Z,-0.37
2022-12-25T03:52:17.718Z,-0.65
2022-12-25T03:55:39.128Z,-0.52
2022-12-25T03:59:21.040Z,-0.21
2022-12-25T04:02:44.613Z,-0.20
2022-12-25T04:06:05.684Z,-0.24
2022-12-25T04:09:26.432Z,-0.19
2022-12-25T04:12:47.355Z,-0.13
2022-12-25T04:16:10.675Z,-0.18
2022-12-25T04:19:32.376Z,-0.10
2022-12-25T04:22:53.209Z,-0.23
2022-12-25T04:26:17.041Z,-0.09
2022-12-25T04:29:37.794Z,-0.17
2022-12-25T04:32:58.580Z,-0.41
2022-12-25T04:36:11.061Z,-0.58
2022-12-25T04:39:13.783Z,-0.35
2022-12-25T04:42:16.747Z,-0.32
2022-12-25T04:45:19.512Z,-0.52
2022-12-25T04:48:22.646Z,-0.56
2022-12-25T04:51:26.161Z,-0.69
2022-12-25T04:54:28.683Z,-0.68
2022-12-25T04:57:31.128Z,-0.75
2022-12-25T05:00:33.746Z,-0.85
2022-12-25T05:03:36.790Z,-0.88
2022-12-25T05:06:40.306Z,-0.97
2022-12-25T05:09:42.729Z,-0.95
2022-12-25T05:12:45.226Z,-0.84
2022-12-25T05:15:47.855Z,-0.91
2022-12-25T05:18:51.469Z,-0.99
2022-12-25T05:21:58.069Z,-1.06
2022-12-25T05:25:00.536Z,-0.78
2022-12-25T05:28:02.980Z,-0.63
2022-12-25T05:31:05.650Z,-0.63
2022-12-25T05:34:08.098Z,-0.77
2022-12-25T05:37:10.588Z,-1.03
2022-12-25T05:40:13.060Z,-1.14
2022-12-25T05:43:15.546Z,-1.10
2022-12-25T05:46:18.064Z,-1.08
2022-12-25T05:49:20.588Z,-1.16
2022-12-25T05:52:23.486Z,-1.02
2022-12-25T05:55:25.879Z,-1.04
2022-12-25T05:58:28.451Z,-1.10
2022-12-25T06:01:31.196Z,-1.03
2022-12-25T06:04:33.740Z,-1.03
2022-12-25T06:07:36.874Z,-0.87
2022-12-25T06:10:39.461Z,-0.86
2022-12-25T06:13:42.381Z,-0.97
2022-12-25T06:16:44.879Z,-1.16
2022-12-25T06:19:47.404Z,-1.11
2022-12-25T06:22:49.837Z,-1.13
2022-12-25T06:25:52.621Z,-1.10
2022-12-25T06:28:55.094Z,-1.11
2022-12-25T06:31:58.948Z,-1.11
2022-12-25T06:35:01.511Z,-1.09
2022-12-25T06:38:03.966Z,-1.08
2022-12-25T06:41:17.994Z,-1.06
2022-12-25T06:44:21.405Z,-0.97
2022-12-25T06:47:23.844Z,-0.99
2022-12-25T06:50:26.426Z,-1.08
2022-12-25T06:53:33.519Z,-1.07
2022-12-25T06:56:39.711Z,-1.16
2022-12-25T06:59:42.191Z,-1.36
2022-12-25T07:02:46.922Z,-1.34
2022-12-25T07:05:49.402Z,-1.05
2022-12-25T07:08:52.072Z,-1.02
2022-12-25T07:11:54.903Z,-0.95
2022-12-25T07:14:57.507Z,-0.72
2022-12-25T07:17:59.938Z,-0.55
2022-12-25T07:21:06.971Z,-0.41
2022-12-25T07:24:09.465Z,-0.34
2022-12-25T07:27:11.886Z,-0.38
2022-12-25T07:30:14.457Z,-0.82
2022-12-25T07:33:17.194Z,-0.59
2022-12-25T07:36:19.569Z,-0.61
2022-12-25T07:39:22.157Z,-0.51
2022-12-25T07:42:25.504Z,-0.55
2022-12-25T07:45:30.137Z,-0.44
2022-12-25T07:48:32.942Z,-0.35
2022-12-25T07:51:35.540Z,-0.21
2022-12-25T07:54:37.968Z,-0.24
2022-12-25T07:57:40.362Z,-0.21
2022-12-25T08:00:42.710Z,-0.20
2022-12-25T08:03:49.544Z,-0.05
2022-12-25T08:06:52.146Z,0.18
2022-12-25T08:09:54.546Z,0.25
2022-12-25T08:12:57.030Z,0.49
2022-12-25T08:16:04.592Z,0.46
2022-12-25T08:19:08.375Z,0.58
2022-12-25T08:22:10.745Z,0.76
2022-12-25T08:25:13.368Z,0.87
2022-12-25T08:28:15.779Z,0.78
2022-12-25T08:31:24.271Z,1.15
2022-12-25T08:34:26.724Z,1.06
2022-12-25T08:37:32.028Z,1.22
2022-12-25T08:40:34.747Z,1.28
2022-12-25T08:43:37.552Z,1.37
2022-12-25T08:46:40.590Z,1.45
2022-12-25T08:49:43.025Z,1.39
2022-12-25T08:52:45.571Z,1.46
2022-12-25T08:55:48.027Z,1.36
2022-12-25T08:58:50.462Z,1.47
2022-12-25T09:01:52.942Z,1.69
2022-12-25T09:04:55.364Z,1.70
2022-12-25T09:07:57.725Z,1.48
2022-12-25T09:11:09.358Z,1.63
2022-12-25T09:14:14.246Z,1.63
2022-12-25T09:17:16.654Z,1.49
2022-12-25T09:20:19.226Z,1.54
2022-12-25T09:23:21.618Z,1.64
2022-12-25T09:26:24.159Z,1.81
2022-12-25T09:29:26.631Z,1.75
2022-12-25T09:32:29.038Z,1.53
2022-12-25T09:35:31.506Z,1.29
2022-12-25T09:38:34.720Z,1.11
2022-12-25T09:41:56.680Z,1.13
2022-12-25T09:45:02.805Z,0.99
2022-12-25T09:48:05.964Z,1.12
2022-12-25T09:51:15.186Z,1.09
2022-12-25T09:54:32.362Z,1.34
2022-12-25T09:57:34.957Z,1.43
2022-12-25T10:01:18.088Z,1.72
2022-12-25T10:04:40.540Z,1.28
2022-12-25T10:07:45.281Z,1.53
2022-12-25T10:10:56.667Z,1.76
2022-12-25T10:14:01.668Z,1.97
2022-12-25T10:17:16.107Z,2.07
2022-12-25T10:20:50.943Z,2.11
2022-12-25T10:23:59.128Z,2.21
2022-12-25T10:27:04.525Z,1.98
2022-12-25T10:30:19.142Z,1.99
2022-12-25T10:33:21.747Z,1.94
2022-12-25T10:36:26.952Z,2.10
2022-12-25T10:39:29.364Z,2.16
2022-12-25T10:42:42.586Z,2.30
2022-12-25T10:45:49.417Z,2.36
2022-12-25T10:48:57.392Z,2.54
2022-12-25T10:52:00.314Z,2.69
2022-12-25T10:55:13.369Z,2.66
2022-12-25T10:58:19.828Z,2.75
2022-12-25T11:01:27.890Z,2.81
2022-12-25T11:04:33.520Z,2.79
2022-12-25T11:07:46.836Z,2.85
2022-12-25T11:11:06.181Z,2.83
2022-12-25T11:14:17.100Z,3.12
2022-12-25T11:17:22.214Z,3.11
2022-12-25T11:20:25.626Z,2.70
2022-12-25T11:23:29.651Z,2.97
2022-12-25T11:26:37.375Z,2.74
2022-12-25T11:30:04.331Z,2.78
2022-12-25T11:33:11.043Z,2.83
2022-12-25T11:36:20.593Z,3.00
2022-12-25T11:39:27.439Z,3.33
2022-12-25T11:42:34.312Z,3.50
2022-12-25T11:45:44.134Z,3.34
2022-12-25T11:48:56.219Z,3.49
2022-12-25T11:51:58.771Z,3.39
2022-12-25T11:55:07.940Z,3.36
2022-12-25T11:58:25.531Z,3.07
2022-12-25T12:01:37.071Z,3.21
2022-12-25T12:04:43.584Z,3.37
2022-12-25T12:07:53.844Z,3.30
2022-12-25T12:11:24.290Z,3.40
2022-12-25T12:14:29.321Z,3.41
2022-12-25T12:17:32.186Z,3.11
2022-12-25T12:20:35.801Z,2.84
2022-12-25T12:24:09.743Z,2.99
2022-12-25T12:27:14.979Z,3.28
2022-12-25T12:30:29.546Z,3.25
2022-12-25T12:33:44.340Z,3.22
2022-12-25T12:36:46.806Z,3.25
2022-12-25T12:39:53.572Z,3.31
2022-12-25T12:42:56.377Z,3.43
2022-12-25T12:46:04.511Z,2.98
2022-12-25T12:49:27.993Z,3.00
2022-12-25T12:52:33.818Z,3.19
2022-12-25T12:55:36.359Z,3.05
2022-12-25T12:58:45.333Z,2.98
2022-12-25T13:02:25.322Z,3.23
2022-12-25T13:05:41.313Z,3.12
2022-12-25T13:09:07.481Z,3.37
2022-12-25T13:12:12.135Z,3.23
2022-12-25T13:15:15.076Z,3.15
2022-12-25T13:18:17.998Z,3.14
2022-12-25T13:21:26.293Z,3.01
2022-12-25T13:24:33.298Z,2.97
2022-12-25T13:27:35.853Z,3.19
2022-12-25T13:30:38.240Z,3.14
2022-12-25T13:33:44.837Z,2.98
2022-12-25T13:36:48.403Z,2.77
2022-12-25T13:39:51.827Z,2.89
2022-12-25T13:42:59.032Z,2.63
2022-12-25T13:46:01.585Z,2.65
2022-12-25T13:49:13.297Z,2.64
2022-12-25T13:52:22.161Z,2.45
2022-12-25T13:55:26.486Z,2.17
2022-12-25T13:58:35.020Z,2.21
2022-12-25T14:01:42.700Z,2.13
2022-12-25T14:04:45.353Z,2.18
2022-12-25T14:07:54.975Z,2.16
2022-12-25T14:10:58.319Z,2.09
2022-12-25T14:14:04.294Z,1.83
2022-12-25T14:17:06.857Z,1.78
2022-12-25T14:20:28.101Z,1.73
2022-12-25T14:23:45.116Z,1.69
2022-12-25T14:26:47.739Z,1.80
2022-12-25T14:29:52.439Z,1.66
2022-12-25T14:32:55.983Z,1.70
2022-12-25T14:35:59.030Z,1.66
2022-12-25T14:39:06.914Z,1.66
2022-12-25T14:42:41.829Z,1.53
2022-12-25T14:46:00.556Z,1.44
2022-12-25T14:49:05.218Z,1.23
2022-12-25T14:52:24.904Z,1.28
2022-12-25T14:55:29.017Z,1.31
2022-12-25T14:58:34.898Z,1.32
2022-12-25T15:01:40.270Z,1.32
2022-12-25T15:04:44.092Z,1.22
2022-12-25T15:07:46.592Z,1.28
2022-12-25T15:11:05.447Z,1.36
2022-12-25T15:14:07.952Z,1.39
2022-12-25T15:17:26.734Z,1.29
2022-12-25T15:20:31.853Z,1.11
2022-12-25T15:23:34.334Z,1.33
2022-12-25T15:26:36.751Z,1.44
2022-12-25T15:30:08.663Z,1.43
2022-12-25T15:33:01.767Z,1.45
2022-12-25T15:36:04.314Z,1.51
2022-12-25T15:39:07.182Z,1.50
2022-12-25T15:42:22.940Z,1.58
2022-12-25T15:45:28.172Z,1.51
2022-12-25T15:48:31.813Z,1.52
2022-12-25T15:51:34.314Z,1.68
2022-12-25T15:54:37.292Z,1.58
2022-12-25T15:57:44.322Z,1.61
2022-12-25T16:00:46.851Z,1.53
2022-12-25T16:03:49.392Z,1.42
2022-12-25T16:06:52.182Z,1.56
2022-12-25T16:09:54.666Z,1.50
2022-12-25T16:12:57.100Z,1.48
2022-12-25T16:15:59.749Z,1.41
2022-12-25T16:19:02.193Z,1.38
2022-12-25T16:22:14.647Z,1.45
2022-12-25T16:25:19.140Z,1.11
2022-12-25T16:28:21.605Z,0.99
2022-12-25T16:31:24.061Z,0.85
2022-12-25T16:34:26.496Z,0.76
2022-12-25T16:37:29.221Z,0.77
2022-12-25T16:40:31.964Z,0.68
2022-12-25T16:43:35.210Z,0.69
2022-12-25T16:46:40.296Z,0.76
2022-12-25T16:49:42.996Z,0.76
2022-12-25T16:52:45.371Z,0.77
2022-12-25T16:55:47.794Z,0.73
2022-12-25T16:58:50.203Z,0.60
2022-12-25T17:01:52.665Z,0.40
2022-12-25T17:04:55.097Z,0.34
2022-12-25T17:07:59.433Z,0.35
2022-12-25T17:11:04.633Z,0.46
2022-12-25T17:14:07.290Z,0.32
2022-12-25T17:17:09.721Z,0.31
2022-12-25T17:20:12.599Z,0.27
2022-12-25T17:23:14.973Z,0.31
2022-12-25T17:26:17.512Z,0.43
2022-12-25T17:29:22.333Z,0.41
2022-12-25T17:32:25.260Z,0.51
2022-12-25T17:35:28.203Z,0.46
2022-12-25T17:38:31.507Z,0.64
2022-12-25T17:41:34.528Z,0.71
2022-12-25T17:44:36.935Z,0.81
2022-12-25T17:47:39.334Z,0.89
2022-12-25T17:50:41.877Z,1.10
2022-12-25T17:53:46.243Z,0.95
2022-12-25T17:56:49.435Z,1.06
2022-12-25T17:59:52.112Z,1.10
2022-12-25T18:02:54.668Z,1.00
2022-12-25T18:06:00.277Z,1.27
2022-12-25T18:09:04.825Z,1.21
2022-12-25T18:12:07.344Z,1.43
2022-12-25T18:15:11.497Z,1.42
2022-12-25T18:18:14.135Z,1.49
2022-12-25T18:21:16.594Z,1.55
2022-12-25T18:24:18.945Z,1.60
2022-12-25T18:27:21.345Z,1.43
2022-12-25T18:30:23.763Z,1.59
2022-12-25T18:33:26.559Z,1.48
2022-12-25T18:36:30.202Z,1.43
2022-12-25T18:39:33.415Z,1.38
2022-12-25T18:42:39.572Z,1.33
2022-12-25T18:45:42.538Z,1.29
2022-12-25T18:48:45.188Z,1.26
2022-12-25T18:51:48.789Z,1.24
2022-12-25T18:54:51.195Z,1.16
2022-12-25T18:57:53.827Z,1.16
2022-12-25T19:00:56.422Z,1.02
2022-12-25T19:04:04.410Z,0.90
2022-12-25T19:07:08.159Z,0.92
2022-12-25T19:10:10.732Z,1.00
2022-12-25T19:13:13.359Z,0.89
2022-12-25T19:16:16.115Z,0.86
2022-12-25T19:19:21.775Z,0.90
2022-12-25T19:22:24.243Z,0.91
2022-12-25T19:25:27.831Z,0.86
2022-12-25T19:28:30.361Z,0.89
2022-12-25T19:31:33.228Z,1.01
2022-12-25T19:34:36.076Z,1.08
2022-12-25T19:37:38.502Z,0.98
2022-12-25T19:40:41.250Z,1.07
2022-12-25T19:43:45.673Z,1.07
2022-12-25T19:46:49.534Z,1.05
2022-12-25T19:49:53.425Z,0.94
2022-12-25T19:52:56.809Z,1.09
2022-12-25T19:56:02.905Z,0.92
2022-12-25T19:59:05.346Z,0.93
2022-12-25T20:02:09.512Z,0.95
2022-12-25T20:05:12.031Z,0.91
2022-12-25T20:08:14.682Z,0.88
2022-12-25T20:11:17.349Z,0.71
2022-12-25T20:14:19.840Z,0.89
2022-12-25T20:17:22.238Z,1.03
2022-12-25T20:20:24.661Z,1.13
2022-12-25T20:23:27.970Z,1.09
2022-12-25T20:26:31.166Z,1.18
2022-12-25T20:29:41.637Z,1.24
2022-12-25T20:32:50.063Z,1.39
2022-12-25T20:35:53.207Z,1.52
2022-12-25T20:38:55.813Z,1.54
2022-12-25T20:41:58.371Z,1.45
2022-12-25T20:45:00.915Z,1.35
2022-12-25T20:48:05.122Z,1.26
2022-12-25T20:51:13.736Z,1.35
2022-12-25T20:54:16.384Z,1.29
2022-12-25T20:57:18.893Z,1.29
2022-12-25T21:00:22.305Z,1.29
2022-12-25T21:03:25.043Z,1.31
2022-12-25T21:06:27.580Z,1.25
2022-12-25T21:09:30.053Z,1.26
2022-12-25T21:12:32.449Z,1.26
2022-12-25T21:15:34.838Z,1.27
2022-12-25T21:18:37.512Z,1.21
2022-12-25T21:21:42.835Z,1.18
2022-12-25T21:24:45.365Z,1.19
2022-12-25T21:27:47.772Z,1.28
2022-12-25T21:30:50.213Z,1.26
2022-12-25T21:33:54.055Z,1.24
2022-12-25T21:36:56.525Z,1.25
2022-12-25T21:39:59.587Z,1.39
2022-12-25T21:43:02.215Z,1.43
2022-12-25T21:46:07.095Z,1.59
2022-12-25T21:49:09.777Z,1.63
2022-12-25T21:52:12.300Z,1.75
2022-12-25T21:55:14.747Z,1.90
2022-12-25T21:58:17.233Z,1.85
2022-12-25T22:01:19.854Z,1.61
2022-12-25T22:04:23.332Z,1.42
2022-12-25T22:07:25.692Z,1.63
2022-12-25T22:10:28.290Z,1.50
2022-12-25T22:13:49.311Z,1.62
2022-12-25T22:17:10.291Z,1.48
2022-12-25T22:20:16.387Z,1.70
2022-12-25T22:23:19.528Z,1.70
2022-12-25T22:26:21.905Z,1.73
2022-12-25T22:29:25.784Z,1.71
2022-12-25T22:32:28.627Z,1.79
2022-12-25T22:35:31.109Z,1.84
2022-12-25T22:38:33.750Z,1.82
2022-12-25T22:41:36.190Z,1.87
2022-12-25T22:44:38.670Z,1.94
2022-12-25T22:47:41.614Z,1.76
2022-12-25T22:50:44.095Z,1.84
2022-12-25T22:53:46.544Z,1.85
2022-12-25T22:56:51.186Z,1.88
2022-12-25T22:59:53.605Z,1.88
2022-12-25T23:02:56.260Z,1.93
2022-12-25T23:05:58.818Z,1.96
2022-12-25T23:09:01.895Z,1.91
2022-12-25T23:12:04.733Z,1.95
2022-12-25T23:15:07.671Z,2.03
2022-12-25T23:18:28.547Z,2.19
2022-12-25T23:21:49.932Z,2.11
2022-12-25T23:25:11.016Z,2.23
2022-12-25T23:28:13.466Z,2.07
2022-12-25T23:31:20.928Z,2.18
2022-12-25T23:34:23.914Z,2.21
2022-12-25T23:37:26.269Z,2.21
2022-12-25T23:40:30.151Z,2.23
2022-12-25T23:43:34.128Z,2.33
2022-12-25T23:46:36.883Z,2.08
2022-12-25T23:49:39.779Z,2.30
2022-12-25T23:52:42.220Z,2.29
2022-12-25T23:55:48.693Z,2.21
2022-12-25T23:58:54.194Z,2.35
